Scurry, Texas
Current Conditions -  °F | °C
As of 4:53 PM on Wednesday 26 Nov 2014 (Local Time) from KTRL Reporting Station
Clear Clear  
Wind Chill: 65°   Ceiling: Unl
Heat Index: 65°   Visibility: 10mi
Dew Point: 33°   Wind: 7mph
Humidity: 31%   Direction: 330°NNW
Pressure: 30.22"   Gusts: NA
Location:  32.52°N, 96.38°W
Report Text: KTRL 262253Z AUTO 33006KT 10SM CLR 18/01 A3022 RMK AO2 SLP231 T01830006
Loading
Personal Weather Stations






























Interactive Weather Map New forecast layout! Learn more

10-Day Weather Forecast

Advertisements
Track Severe Weather on mobile